Aeroporto :
LOGIN :

Iscrizione | Disclaimer

   EN    FR    IT 

 










Sommario :    VFR   VFR Marginale   IFR   IFR Intensivo   IFR Molto Intensivo
Visibilità : 
Base nubi : 
>= 8 km
>= 3000ft
5 / 8 km
1000 / 3000 ft
1500m / 5 km
500 / 1000 ft
800 / 1500m
200 / 500 ft
< 800m
< 200 ft
Simboli :   Temporali  Nebbia  Neve Forte  Precipitazioni Forti  Vento > 20 kt
SIGMETs :   Varie  Temporali  Ghiacco  Turbolenza  Onda orograficha  Ceneri Vulcaniche






- Altitudine del aeroporto : 157 ft
- Codice IATA : LIL


LFQQ - Lille Lesquin

ULTIMO METAR :
  • 191900Z AUTO 18011KT 9999 SCT015/// SCT030/// BKN041/// ///TCU 06/05 Q1021 TEMPO 4000 RA BKN007 OVC025

METARs OBSOLETI :
  • 191830Z AUTO 19010KT 9999 -RA BKN019/// OVC030/// ///TCU 07/05 Q1021 TEMPO 4000 RA BKN007 OVC025
  • 191800Z AUTO 18006KT 9999 -RA BKN022/// BKN029/// BKN034/// ///TCU 07/05 Q1022 TEMPO 4000 RA BKN007 OVC025
  • 191730Z AUTO 20006KT 9999 -RA BKN027/// BKN034/// OVC045/// ///TCU 06/05 Q1022 TEMPO 4000 RA BKN007 OVC025
  • 191700Z AUTO 21009KT 9999 -RA FEW017 BKN025 BKN040 07/05 Q1022 TEMPO 4000 RA BKN007 OVC017
  • 191630Z AUTO 21008KT 9999 -DZ SCT025 BKN030 BKN037 07/05 Q1022 TEMPO 4000 RA BKN007 OVC017

TAF TAF LFQQ
Valido dal 19 a 18 ore il 21 a 00 ore UTC


191700Z 1918/2024 20010KT 9999 SCT013 BKN025
TEMPO 1918/1922 4000 RA BKN007 OVC025
PROB40 1922/2007 BKN008
BECMG 2007/2009 21015G25KT
BECMG 2010/2012 20020G35KT
BECMG 2014/2016 4000 RA OVC012
BECMG 2017/2018 30025G45KT
BECMG 2018/2020 30020G35KT CAVOK
BECMG 2020/2022 27013KT
ATIS : +33 3 20 16 19 54



MetMap, La meteo Aeronautica in un colpo d'occhio ! - Copyright ORBIFLY Dicembre 2007 - Disclaimer

ORBIFLY MET'MAP TEAM :

Programmazione e sviluppo : Alexandra Zaïnal
Concezione : Baudouin d'Aumeries
Aiuto per la programmazione : Marc-Olivier Méhu
Supporto tecnico e logistico : Manuel Goepfert
Aiuto per la traduzione : Arnaldo La Scala

Contatto : metmap@orbifly.com




FONTI E CREDITI :

   NOAA